createdAt,value
2022-08-19T00:01:28.789Z,10.77
2022-08-19T00:04:01.210Z,10.35
2022-08-19T00:06:33.371Z,10.18
2022-08-19T00:09:08.110Z,9.30
2022-08-19T00:11:40.908Z,10.82
2022-08-19T00:14:13.857Z,10.32
2022-08-19T00:16:44.999Z,10.75
2022-08-19T00:19:13.783Z,10.25
2022-08-19T00:21:46.673Z,11.32
2022-08-19T00:24:15.930Z,10.93
2022-08-19T00:26:47.230Z,10.95
2022-08-19T00:29:20.467Z,10.57
2022-08-19T00:31:48.744Z,10.93
2022-08-19T00:34:19.902Z,10.73
2022-08-19T00:36:49.364Z,10.32
2022-08-19T00:39:21.990Z,10.60
2022-08-19T00:41:54.239Z,11.30
2022-08-19T00:44:30.404Z,10.68
2022-08-19T00:47:01.061Z,10.65
2022-08-19T00:49:41.071Z,10.43
2022-08-19T00:52:17.039Z,10.68
2022-08-19T00:54:49.710Z,10.57
2022-08-19T00:57:37.107Z,10.90
2022-08-19T01:00:11.826Z,11.18
2022-08-19T01:02:43.370Z,11.20
2022-08-19T01:05:22.167Z,10.57
2022-08-19T01:07:55.522Z,10.73
2022-08-19T01:10:34.761Z,10.40
2022-08-19T01:13:12.045Z,11.13
2022-08-19T01:15:48.992Z,10.77
2022-08-19T01:18:21.636Z,10.77
2022-08-19T01:20:53.324Z,10.02
2022-08-19T01:23:43.862Z,11.30
2022-08-19T01:26:26.247Z,10.48
2022-08-19T01:29:05.174Z,10.80
2022-08-19T01:31:36.947Z,10.55
2022-08-19T01:34:13.234Z,11.23
2022-08-19T01:36:51.055Z,10.82
2022-08-19T01:39:29.689Z,10.95
2022-08-19T01:41:59.434Z,10.90
2022-08-19T01:44:27.948Z,10.80
2022-08-19T01:46:58.924Z,9.75
2022-08-19T01:49:29.269Z,10.60
2022-08-19T01:51:58.730Z,11.00
2022-08-19T01:54:30.088Z,11.10
2022-08-19T01:57:09.627Z,10.40
2022-08-19T01:59:42.353Z,11.43
2022-08-19T02:02:12.964Z,11.50
2022-08-19T02:04:41.452Z,17.52
2022-08-19T02:07:09.638Z,21.13
2022-08-19T02:09:38.099Z,21.42
2022-08-19T02:12:06.950Z,20.65
2022-08-19T02:14:35.989Z,20.17
2022-08-19T02:17:04.885Z,20.40
2022-08-19T02:19:33.986Z,18.75
2022-08-19T02:22:02.213Z,17.05
2022-08-19T02:24:30.783Z,16.95
2022-08-19T02:27:00.077Z,14.82
2022-08-19T02:29:30.681Z,15.05
2022-08-19T02:31:59.469Z,14.75
2022-08-19T02:34:27.498Z,14.35
2022-08-19T02:37:03.104Z,13.30
2022-08-19T02:39:34.192Z,13.82
2022-08-19T02:42:04.341Z,14.02
2022-08-19T02:44:32.465Z,13.45
2022-08-19T02:47:00.835Z,13.73
2022-08-19T02:49:34.918Z,13.02
2022-08-19T02:52:07.137Z,12.43
2022-08-19T02:54:35.781Z,12.65
2022-08-19T02:57:04.334Z,13.80
2022-08-19T02:59:39.169Z,13.48
2022-08-19T03:02:07.687Z,12.13
2022-08-19T03:04:35.720Z,12.68
2022-08-19T03:07:10.619Z,13.18
2022-08-19T03:09:41.930Z,13.57
2022-08-19T03:12:10.273Z,15.85
2022-08-19T03:14:38.367Z,15.48
2022-08-19T03:17:11.950Z,16.45
2022-08-19T03:19:40.428Z,16.30
2022-08-19T03:22:10.704Z,14.45
2022-08-19T03:24:40.031Z,14.98
2022-08-19T03:27:08.240Z,16.35
2022-08-19T03:29:43.931Z,15.23
2022-08-19T03:32:19.798Z,15.40
2022-08-19T03:35:02.188Z,15.05
2022-08-19T03:37:31.929Z,16.38
2022-08-19T03:40:00.092Z,14.57
2022-08-19T03:42:38.352Z,13.30
2022-08-19T03:45:34.997Z,13.63
2022-08-19T03:50:33.200Z,12.13
2022-08-19T03:53:03.879Z,11.07
2022-08-19T03:55:32.280Z,10.85
2022-08-19T03:58:00.575Z,12.45
2022-08-19T04:00:28.604Z,12.40
2022-08-19T04:02:58.874Z,12.05
2022-08-19T04:05:30.991Z,11.95
2022-08-19T04:08:00.730Z,11.50
2022-08-19T04:12:57.637Z,11.48
2022-08-19T04:15:26.157Z,11.25
2022-08-19T04:17:57.495Z,11.98
2022-08-19T04:20:25.614Z,11.65
2022-08-19T04:22:54.372Z,11.82
2022-08-19T07:55:05.345Z,7.80
2022-08-19T07:57:34.799Z,9.00
2022-08-19T08:00:07.865Z,8.57
2022-08-19T08:02:40.705Z,7.70
2022-08-19T08:05:27.314Z,8.73
2022-08-19T08:08:14.572Z,7.75
2022-08-19T08:10:42.791Z,8.38
2022-08-19T08:13:18.014Z,8.35
2022-08-19T08:15:46.095Z,8.77
2022-08-19T08:18:14.543Z,8.00
2022-08-19T08:20:43.142Z,7.47
2022-08-19T08:23:23.651Z,7.38
2022-08-19T08:25:56.568Z,8.23
2022-08-19T08:28:30.085Z,7.68
2022-08-19T08:31:10.142Z,8.35
2022-08-19T08:33:38.438Z,7.63
2022-08-19T08:36:13.691Z,6.97
2022-08-19T08:41:31.287Z,7.65
2022-08-19T08:44:01.399Z,6.88
2022-08-19T08:46:44.904Z,7.68
2022-08-19T08:49:39.055Z,7.85
2022-08-19T08:52:11.372Z,7.28
2022-08-19T08:54:48.663Z,8.38
2022-08-19T08:57:43.664Z,7.10
2022-08-19T09:00:18.081Z,8.38
2022-08-19T09:02:50.387Z,7.35
2022-08-19T09:05:48.629Z,7.30
2022-08-19T09:08:25.711Z,7.40
2022-08-19T09:11:00.270Z,6.72
2022-08-19T09:16:05.211Z,6.72
2022-08-19T09:18:46.777Z,6.75
2022-08-19T09:21:20.905Z,6.32
2022-08-19T09:23:51.560Z,5.95
2022-08-19T09:26:24.249Z,6.15
2022-08-19T09:29:15.393Z,5.97
2022-08-19T09:31:48.440Z,5.90
2022-08-19T09:34:21.272Z,6.30
2022-08-19T09:36:59.767Z,6.43
2022-08-19T09:39:35.782Z,6.05
2022-08-19T09:42:16.410Z,6.25
2022-08-19T09:44:49.028Z,5.95
2022-08-19T09:47:17.780Z,5.88
2022-08-19T09:49:52.309Z,5.88
2022-08-19T09:52:24.043Z,5.68
2022-08-19T09:54:57.327Z,5.60
2022-08-19T09:57:27.359Z,5.95
2022-08-19T10:00:02.748Z,6.00
2022-08-19T10:02:38.469Z,5.85
2022-08-19T10:05:33.826Z,6.18
2022-08-19T10:08:13.635Z,6.25
2022-08-19T10:10:46.348Z,5.82
2022-08-19T10:13:21.773Z,6.28
2022-08-19T10:16:11.590Z,6.50
2022-08-19T10:18:52.684Z,6.88
2022-08-19T10:21:32.125Z,6.57
2022-08-19T10:24:06.250Z,6.68
2022-08-19T10:26:39.305Z,6.57
2022-08-19T10:29:12.382Z,6.07
2022-08-19T10:32:00.647Z,6.65
2022-08-19T10:34:33.994Z,6.78
2022-08-19T10:37:10.731Z,6.50
2022-08-19T10:39:42.967Z,6.30
2022-08-19T10:42:14.590Z,6.30
2022-08-19T10:44:45.821Z,6.25
2022-08-19T10:47:18.021Z,6.05
2022-08-19T10:50:14.087Z,6.63
2022-08-19T10:52:56.421Z,7.13
2022-08-19T10:55:45.221Z,6.43
2022-08-19T10:58:14.974Z,6.22
2022-08-19T11:00:55.324Z,6.57
2022-08-19T11:03:28.199Z,6.50
2022-08-19T11:06:02.437Z,6.13
2022-08-19T11:08:32.130Z,6.32
2022-08-19T11:11:14.030Z,6.05
2022-08-19T11:13:47.195Z,6.15
2022-08-19T11:16:23.339Z,7.18
2022-08-19T11:18:57.537Z,7.30
2022-08-19T11:21:33.040Z,7.60
2022-08-19T11:24:03.068Z,6.75
2022-08-19T11:26:36.905Z,7.05
2022-08-19T11:29:19.973Z,6.68
2022-08-19T11:31:52.399Z,7.28
2022-08-19T11:34:22.442Z,6.95
2022-08-19T11:36:56.963Z,6.65
2022-08-19T11:39:28.370Z,6.47
2022-08-19T11:42:00.530Z,6.35
2022-08-19T11:44:33.370Z,6.45
2022-08-19T11:47:11.225Z,6.93
2022-08-19T11:49:47.738Z,6.20
2022-08-19T11:52:20.555Z,6.43
2022-08-19T11:54:54.852Z,6.63
2022-08-19T11:57:53.856Z,6.53
2022-08-19T12:00:25.849Z,6.55
2022-08-19T12:03:12.800Z,6.88
2022-08-19T12:05:51.733Z,6.68
2022-08-19T12:08:26.548Z,6.90
2022-08-19T12:10:55.289Z,6.85
2022-08-19T12:13:23.914Z,7.15
2022-08-19T12:16:03.056Z,6.78
2022-08-19T12:18:35.232Z,6.82
2022-08-19T12:21:08.075Z,6.40
2022-08-19T12:23:41.209Z,7.05
2022-08-19T12:26:18.941Z,6.65
2022-08-19T12:28:49.508Z,7.30
2022-08-19T12:31:25.861Z,7.35
2022-08-19T12:34:07.699Z,6.85
2022-08-19T12:36:40.649Z,8.75
2022-08-19T12:39:27.559Z,8.32
2022-08-19T12:44:47.067Z,7.22
2022-08-19T12:47:29.262Z,6.93
2022-08-19T12:50:17.188Z,7.50
2022-08-19T12:52:49.376Z,7.40
2022-08-19T12:55:21.130Z,7.00
2022-08-19T12:57:54.667Z,6.90
2022-08-19T13:00:34.011Z,7.47
2022-08-19T13:03:05.310Z,7.45
2022-08-19T13:05:40.810Z,7.20
2022-08-19T13:08:13.167Z,7.68
2022-08-19T13:10:44.392Z,7.82
2022-08-19T13:13:16.960Z,7.28
2022-08-19T13:15:47.099Z,7.47
2022-08-19T13:18:16.442Z,7.82
2022-08-19T13:20:52.876Z,7.05
2022-08-19T13:23:26.608Z,7.55
2022-08-19T13:26:22.085Z,7.43
2022-08-19T13:29:10.451Z,7.22
2022-08-19T13:32:03.440Z,7.95
2022-08-19T13:34:37.884Z,7.97
2022-08-19T13:37:14.047Z,7.78
2022-08-19T13:39:48.197Z,7.95
2022-08-19T13:44:58.622Z,7.75
2022-08-19T13:47:27.059Z,9.30
2022-08-19T13:52:33.367Z,7.55
2022-08-19T13:55:04.093Z,7.72
2022-08-19T13:57:32.159Z,8.23
2022-08-19T14:00:05.013Z,8.48
2022-08-19T14:02:34.079Z,7.78
2022-08-19T14:05:07.047Z,8.57
2022-08-19T14:07:38.248Z,8.68
2022-08-19T14:10:10.123Z,8.73
2022-08-19T14:13:00.686Z,8.38
2022-08-19T14:15:31.214Z,8.88
2022-08-19T14:18:01.190Z,8.50
2022-08-19T14:20:33.420Z,8.70
2022-08-19T14:23:01.492Z,8.95
2022-08-19T14:25:33.048Z,8.23
2022-08-19T14:28:12.948Z,8.95
2022-08-19T14:30:42.964Z,8.82
2022-08-19T14:33:20.616Z,9.68
2022-08-19T14:35:49.423Z,10.15
2022-08-19T14:38:28.153Z,9.60
2022-08-19T14:41:10.573Z,9.65
2022-08-19T14:43:48.204Z,9.98
2022-08-19T14:46:18.101Z,10.27
2022-08-19T14:48:57.455Z,9.93
2022-08-19T14:51:44.157Z,10.15
2022-08-19T14:54:17.869Z,11.63
2022-08-19T14:56:54.510Z,11.05
2022-08-19T14:59:27.488Z,10.35
2022-08-19T15:02:20.414Z,11.88
2022-08-19T15:04:58.278Z,11.30
2022-08-19T15:07:30.061Z,11.85
2022-08-19T15:09:59.664Z,10.13
2022-08-19T15:12:49.824Z,10.98
2022-08-19T15:15:24.723Z,10.43
2022-08-19T15:18:08.032Z,10.38
2022-08-19T15:20:43.795Z,11.05
2022-08-19T15:23:18.239Z,11.38
2022-08-19T15:25:55.925Z,10.07
2022-08-19T15:28:27.559Z,9.10
2022-08-19T15:30:56.889Z,8.93
2022-08-19T15:33:27.302Z,10.73
2022-08-19T15:35:55.879Z,10.57
2022-08-19T15:38:26.981Z,10.68
2022-08-19T15:41:16.579Z,11.15
2022-08-19T15:43:46.242Z,10.60
2022-08-19T15:46:22.373Z,12.48
2022-08-19T15:48:57.398Z,11.15
2022-08-19T15:51:31.183Z,11.00
2022-08-19T15:54:05.120Z,10.00
2022-08-19T15:57:00.276Z,9.52
2022-08-19T15:59:50.474Z,9.18
2022-08-19T16:02:39.321Z,8.80
2022-08-19T16:05:44.776Z,9.57
2022-08-19T16:11:08.565Z,11.77
2022-08-19T16:13:40.247Z,10.60
2022-08-19T16:16:12.280Z,12.10
2022-08-19T16:18:40.669Z,11.23
2022-08-19T16:21:11.203Z,11.90
2022-08-19T16:23:40.287Z,11.82
2022-08-19T16:26:09.203Z,12.13
2022-08-19T16:28:39.447Z,11.45
2022-08-19T16:31:13.876Z,11.23
2022-08-19T16:33:43.800Z,11.20
2022-08-19T16:36:20.156Z,11.20
2022-08-19T16:38:52.788Z,10.88
2022-08-19T16:41:26.720Z,11.35
2022-08-19T16:43:57.680Z,10.70
2022-08-19T16:46:42.529Z,10.48
2022-08-19T16:49:13.813Z,10.73
2022-08-19T16:51:55.338Z,10.90
2022-08-19T16:54:40.346Z,11.65
2022-08-19T17:00:01.575Z,11.70
2022-08-19T17:02:40.479Z,11.35
2022-08-19T17:05:29.492Z,11.38
2022-08-19T17:07:59.331Z,11.90
2022-08-19T17:10:29.294Z,12.48
2022-08-19T17:13:00.882Z,12.27
2022-08-19T17:15:36.010Z,12.73
2022-08-19T17:18:15.539Z,12.93
2022-08-19T17:20:51.840Z,12.68
2022-08-19T17:23:36.723Z,13.98
2022-08-19T17:26:27.524Z,11.23
2022-08-19T17:29:02.524Z,11.30
2022-08-19T17:31:43.942Z,11.57
2022-08-19T17:34:14.518Z,12.32
2022-08-19T17:39:28.533Z,12.07
2022-08-19T17:42:05.437Z,12.48
2022-08-19T17:44:50.830Z,11.88
2022-08-19T17:47:28.307Z,12.30
2022-08-19T17:50:01.159Z,11.57
2022-08-19T17:52:36.757Z,11.88
2022-08-19T17:55:08.774Z,12.02
2022-08-19T17:57:53.905Z,11.90
2022-08-19T18:00:36.313Z,11.32
2022-08-19T18:03:11.569Z,11.88
2022-08-19T18:05:55.345Z,11.95
2022-08-19T18:08:24.804Z,11.05
2022-08-19T18:10:53.669Z,11.90
2022-08-19T18:16:01.080Z,12.40
2022-08-19T18:18:29.555Z,12.20
2022-08-19T18:21:01.124Z,12.30
2022-08-19T18:23:44.317Z,12.02
2022-08-19T18:26:18.253Z,12.10
2022-08-19T18:28:49.569Z,13.25
2022-08-19T18:31:27.712Z,11.52
2022-08-19T18:33:58.690Z,11.65
2022-08-19T18:36:52.634Z,11.70
2022-08-19T18:39:40.519Z,11.52
2022-08-19T18:42:37.635Z,12.50
2022-08-19T18:45:26.293Z,11.75
2022-08-19T18:48:24.029Z,11.35
2022-08-19T18:51:01.102Z,11.88
2022-08-19T18:53:32.451Z,13.13
2022-08-19T18:56:02.640Z,11.80
2022-08-19T18:58:37.618Z,11.93
2022-08-19T19:01:20.162Z,14.07
2022-08-19T19:03:55.964Z,12.45
2022-08-19T19:06:32.052Z,13.80
2022-08-19T19:09:06.492Z,14.02
2022-08-19T19:11:40.831Z,13.88
2022-08-19T19:14:23.217Z,13.85
2022-08-19T19:19:46.560Z,13.43
2022-08-19T19:22:23.020Z,13.13
2022-08-19T19:24:57.779Z,12.55
2022-08-19T19:27:32.003Z,12.48
2022-08-19T19:30:07.912Z,13.18
2022-08-19T19:32:43.909Z,13.30
2022-08-19T19:35:22.794Z,12.82
2022-08-19T19:37:54.640Z,12.73
2022-08-19T19:40:38.670Z,14.73
2022-08-19T19:43:09.204Z,13.10
2022-08-19T19:45:45.111Z,15.38
2022-08-19T19:48:16.739Z,12.68
2022-08-19T19:50:45.742Z,13.65
2022-08-19T19:53:18.794Z,13.52
2022-08-19T19:58:17.193Z,12.57
2022-08-19T20:00:52.464Z,12.32
2022-08-19T20:03:32.377Z,13.10
2022-08-19T20:06:01.972Z,14.02
2022-08-19T20:08:49.636Z,13.38
2022-08-19T20:11:48.695Z,12.75
2022-08-19T20:14:31.776Z,12.50
2022-08-19T20:17:03.647Z,12.45
2022-08-19T20:19:37.326Z,12.20
2022-08-19T20:22:08.703Z,12.65
2022-08-19T20:24:44.277Z,12.57
2022-08-19T20:27:18.169Z,12.43
2022-08-19T20:29:49.107Z,13.00
2022-08-19T20:32:40.308Z,12.48
2022-08-19T20:35:12.635Z,13.38
2022-08-19T20:37:43.647Z,13.40
2022-08-19T20:40:21.856Z,12.18
2022-08-19T20:42:54.203Z,12.80
2022-08-19T20:45:32.831Z,12.32
2022-08-19T20:48:05.486Z,11.90
2022-08-19T20:50:35.693Z,11.65
2022-08-19T20:53:14.752Z,11.90
2022-08-19T20:55:46.513Z,11.93
2022-08-19T20:58:14.661Z,11.75
2022-08-19T21:00:46.859Z,11.70
2022-08-19T21:03:19.234Z,11.43
2022-08-19T21:05:51.603Z,11.32
2022-08-19T21:08:23.651Z,11.55
2022-08-19T21:10:56.633Z,10.73
2022-08-19T21:13:28.742Z,11.13
2022-08-19T21:16:09.413Z,10.40
2022-08-19T21:18:46.857Z,11.45
2022-08-19T21:21:17.270Z,10.73
2022-08-19T21:23:46.369Z,10.85
2022-08-19T21:26:18.804Z,11.30
2022-08-19T21:28:52.991Z,11.20
2022-08-19T21:31:32.535Z,10.55
2022-08-19T21:34:11.124Z,11.20
2022-08-19T21:36:44.085Z,10.30
2022-08-19T21:39:20.383Z,11.18
2022-08-19T21:41:48.589Z,9.95
2022-08-19T21:44:25.600Z,10.00
2022-08-19T21:47:00.619Z,10.65
2022-08-19T21:49:30.054Z,10.00
2022-08-19T21:52:05.738Z,10.77
2022-08-19T21:54:43.575Z,9.75
2022-08-19T21:57:14.399Z,10.20
2022-08-19T21:59:47.249Z,9.80
2022-08-19T22:02:25.715Z,10.27
2022-08-19T22:05:01.278Z,10.20
2022-08-19T22:07:30.997Z,10.13
2022-08-19T22:09:59.525Z,9.63
2022-08-19T22:12:51.424Z,8.95
2022-08-19T22:15:26.799Z,9.45
2022-08-19T22:17:55.171Z,9.32
2022-08-19T22:20:31.376Z,9.20
2022-08-19T22:23:03.071Z,10.00
2022-08-19T22:25:43.797Z,9.65
2022-08-19T22:28:13.847Z,9.57
2022-08-19T22:30:45.900Z,9.35
2022-08-19T22:33:19.285Z,9.15
2022-08-19T22:35:48.294Z,8.80
2022-08-19T22:38:19.075Z,8.88
2022-08-19T22:40:50.842Z,10.10
2022-08-19T22:43:31.914Z,9.27
2022-08-19T22:46:01.788Z,9.10
2022-08-19T22:48:33.654Z,9.93
2022-08-19T22:51:27.727Z,8.73
2022-08-19T22:54:02.486Z,9.38
2022-08-19T22:56:31.411Z,9.60
2022-08-19T22:59:00.111Z,10.15
2022-08-19T23:01:31.126Z,11.20
2022-08-19T23:04:00.349Z,9.77
2022-08-19T23:06:37.180Z,10.75
2022-08-19T23:09:16.966Z,10.18
2022-08-19T23:11:48.926Z,10.45
2022-08-19T23:14:19.426Z,10.20
2022-08-19T23:16:51.952Z,10.27
2022-08-19T23:19:22.964Z,10.18
2022-08-19T23:21:56.168Z,11.15
2022-08-19T23:24:31.776Z,9.88
2022-08-19T23:27:23.222Z,10.77
2022-08-19T23:30:12.068Z,10.50
2022-08-19T23:32:46.444Z,10.95
2022-08-19T23:35:15.439Z,10.90
2022-08-19T23:38:07.607Z,10.45
2022-08-19T23:40:41.900Z,10.10
2022-08-19T23:43:20.388Z,10.65
2022-08-19T23:46:06.608Z,10.30
2022-08-19T23:51:11.482Z,11.50
2022-08-19T23:53:45.116Z,10.55
2022-08-19T23:56:17.697Z,11.55
2022-08-19T23:58:51.833Z,11.32
